PWSweather.com
Personal Weather Stations
Station Observations
PICKERING
North Yorkshire, PickeringGB

North YorkshirePickeringGB

Lat: 54.2494, Lon: -0.7725

Elevation: 192

Station Type: Oregon Scientific WMR100

Latest ConditionsUpdated 7:00:00 PM GMT Sunday, Jan 26, 2020
Currently Today's Max Today's Min Today's Average
Temperature 41.7°F5.4°C 45.7°F7.6°C 41.7°F5.4°C 44.0°F6.7°C
Dew Point 39.2°F4.0°C 42.8°F6.0°C 39.2°F4.0°C 40.8°F4.9°C
Winds Calm Calm 10.6 mph -17.1 kmh - - 6.4 mph 10.3 kmh
Wind Gusts -- 17.0 mph27.4 kmh - -
Humidity 89% 89% 84% 86%
Pressure 29.53 in1000.0 mb 29.80 in1009.1 mb 29.50 in999.0 mb -
Precipitation - 0.06 in1.5 mm - -
Hour Temp Dew Point Humidity Winds Wind Gusts Pressure Precip Precip Rate Daily Precip Total
07:00 PM 41.7°F5.4°C 39.2°F4.0°C 89% Calm Calm -- 29.53 in1000.0 mb 0.00 in0.0 mm 0.00 in0.0 mm 0.06 in1.5 mm
06:50 PM 41.9°F5.5°C 39.2°F4.0°C 89% Calm Calm -- 29.53 in1000.0 mb 0.00 in0.0 mm 0.00 in0.0 mm 0.06 in1.5 mm
06:40 PM 41.9°F5.5°C 39.2°F4.0°C 88% Calm Calm -- 29.53 in1000.0 mb 0.00 in0.0 mm 0.00 in0.0 mm 0.06 in1.5 mm
06:30 PM 42.1°F5.6°C 39.2°F4.0°C 88% Calm Calm -- 29.53 in1000.0 mb 0.00 in0.0 mm 0.00 in0.0 mm 0.06 in1.5 mm
06:20 PM 42.3°F5.7°C 39.2°F4.0°C 88% Calm Calm -- 29.53 in1000.0 mb 0.00 in0.0 mm 0.00 in0.0 mm 0.06 in1.5 mm
06:10 PM 42.4°F5.8°C 39.2°F4.0°C 88% Calm Calm -- 29.53 in1000.0 mb 0.00 in0.0 mm 0.00 in0.0 mm 0.06 in1.5 mm
06:00 PM 42.8°F6.0°C 39.2°F4.0°C 88% Calm Calm -- 29.53 in1000.0 mb 0.00 in0.0 mm 0.00 in0.0 mm 0.06 in1.5 mm
05:50 PM 43.0°F6.1°C 39.2°F4.0°C 88% Calm Calm -- 29.53 in1000.0 mb 0.00 in0.0 mm 0.00 in0.0 mm 0.06 in1.5 mm
05:40 PM 43.5°F6.4°C 41.0°F5.0°C 88% Calm Calm -- 29.53 in1000.0 mb 0.00 in0.0 mm 0.00 in0.0 mm 0.06 in1.5 mm
05:30 PM 44.1°F6.7°C 41.0°F5.0°C 88% Calm Calm -- 29.53 in1000.0 mb 0.00 in0.0 mm 0.00 in0.0 mm 0.06 in1.5 mm
05:20 PM 44.2°F6.8°C 41.0°F5.0°C 88% Calm Calm -- 29.53 in1000.0 mb 0.00 in0.0 mm 0.00 in0.0 mm 0.06 in1.5 mm
05:10 PM 44.4°F6.9°C 41.0°F5.0°C 88% 0.2 mph N0.3 kmh N 0.9 mph1.4 kmh 29.53 in1000.0 mb 0.00 in0.0 mm 0.00 in0.0 mm 0.06 in1.5 mm
05:00 PM 44.8°F7.1°C 41.0°F5.0°C 88% 1.0 mph N1.6 kmh N 4.0 mph6.4 kmh 29.53 in1000.0 mb 0.00 in0.0 mm 0.00 in0.0 mm 0.06 in1.5 mm
04:50 PM 45.0°F7.2°C 42.8°F6.0°C 88% 2.0 mph N3.2 kmh N 4.7 mph7.6 kmh 29.53 in1000.0 mb 0.00 in0.0 mm 0.00 in0.0 mm 0.06 in1.5 mm
04:40 PM 45.0°F7.2°C 42.8°F6.0°C 88% 1.2 mph N1.9 kmh N 2.7 mph4.3 kmh 29.53 in1000.0 mb 0.00 in0.0 mm 0.00 in0.0 mm 0.06 in1.5 mm
04:30 PM 45.1°F7.3°C 42.8°F6.0°C 88% 3.0 mph N4.8 kmh N 4.9 mph7.9 kmh 29.53 in1000.0 mb 0.00 in0.0 mm 0.00 in0.0 mm 0.06 in1.5 mm
04:20 PM 45.3°F7.4°C 42.8°F6.0°C 87% 2.3 mph N3.7 kmh N 3.6 mph5.8 kmh 29.53 in1000.0 mb 0.00 in0.0 mm 0.00 in0.0 mm 0.06 in1.5 mm
04:10 PM 45.5°F7.5°C 42.8°F6.0°C 87% 3.8 mph N6.1 kmh N 4.9 mph7.9 kmh 29.53 in1000.0 mb 0.00 in0.0 mm 0.00 in0.0 mm 0.06 in1.5 mm
04:00 PM 45.5°F7.5°C 42.8°F6.0°C 87% 4.5 mph N7.2 kmh N 7.4 mph11.9 kmh 29.50 in999.0 mb 0.00 in0.0 mm 0.00 in0.0 mm 0.06 in1.5 mm
03:50 PM 45.7°F7.6°C 42.8°F6.0°C 87% 4.2 mph N6.8 kmh N 7.4 mph11.9 kmh 29.53 in1000.0 mb 0.00 in0.0 mm 0.00 in0.0 mm 0.06 in1.5 mm
03:40 PM 45.7°F7.6°C 42.8°F6.0°C 87% 5.8 mph N9.3 kmh N 12.8 mph20.6 kmh 29.53 in1000.0 mb 0.00 in0.0 mm 0.00 in0.0 mm 0.06 in1.5 mm
03:30 PM 45.7°F7.6°C 42.8°F6.0°C 87% 5.7 mph N9.2 kmh N 12.8 mph20.6 kmh 29.53 in1000.0 mb 0.00 in0.0 mm 0.00 in0.0 mm 0.06 in1.5 mm
03:20 PM 45.7°F7.6°C 42.8°F6.0°C 87% 5.7 mph N9.2 kmh N 7.4 mph11.9 kmh 29.50 in999.0 mb 0.00 in0.0 mm 0.00 in0.0 mm 0.06 in1.5 mm
03:10 PM 45.7°F7.6°C 42.8°F6.0°C 87% 5.4 mph N8.7 kmh N 6.5 mph10.5 kmh 29.50 in999.0 mb 0.00 in0.0 mm 0.00 in0.0 mm 0.06 in1.5 mm
03:00 PM 45.5°F7.5°C 42.8°F6.0°C 87% 7.5 mph N12.1 kmh N 10.3 mph16.6 kmh 29.50 in999.0 mb 0.00 in0.0 mm 0.00 in0.0 mm 0.06 in1.5 mm
02:50 PM 45.5°F7.5°C 42.8°F6.0°C 86% 6.6 mph N10.6 kmh N 11.9 mph19.2 kmh 29.50 in999.0 mb 0.00 in0.0 mm 0.00 in0.0 mm 0.06 in1.5 mm
02:40 PM 45.5°F7.5°C 42.8°F6.0°C 86% 6.7 mph N10.8 kmh N 10.5 mph16.9 kmh 29.50 in999.0 mb 0.00 in0.0 mm 0.00 in0.0 mm 0.06 in1.5 mm
02:30 PM 45.5°F7.5°C 42.8°F6.0°C 86% 8.1 mph N13.0 kmh N 13.0 mph20.9 kmh 29.50 in999.0 mb 0.00 in0.0 mm 0.00 in0.0 mm 0.06 in1.5 mm
02:20 PM 45.5°F7.5°C 42.8°F6.0°C 86% 8.3 mph N13.4 kmh N 12.8 mph20.6 kmh 29.50 in999.0 mb 0.00 in0.0 mm 0.00 in0.0 mm 0.06 in1.5 mm
02:10 PM 45.5°F7.5°C 42.8°F6.0°C 86% 7.3 mph N11.7 kmh N 13.2 mph21.2 kmh 29.50 in999.0 mb 0.00 in0.0 mm 0.00 in0.0 mm 0.06 in1.5 mm
02:00 PM 45.5°F7.5°C 42.8°F6.0°C 86% 7.7 mph N12.4 kmh N 13.2 mph21.2 kmh 29.53 in1000.0 mb 0.00 in0.0 mm 0.00 in0.0 mm 0.06 in1.5 mm
01:50 PM 45.1°F7.3°C 41.0°F5.0°C 86% 7.3 mph N11.7 kmh N 12.3 mph19.8 kmh 29.53 in1000.0 mb 0.00 in0.0 mm 0.00 in0.0 mm 0.06 in1.5 mm
01:40 PM 45.1°F7.3°C 41.0°F5.0°C 86% 10.6 mph N17.1 kmh N 14.8 mph23.8 kmh 29.53 in1000.0 mb 0.00 in0.0 mm 0.00 in0.0 mm 0.06 in1.5 mm
01:30 PM 45.1°F7.3°C 41.0°F5.0°C 85% 10.5 mph N16.9 kmh N 17.0 mph27.4 kmh 29.53 in1000.0 mb 0.06 in1.5 mm 0.00 in0.0 mm 0.06 in1.5 mm
01:20 PM 45.3°F7.4°C 41.0°F5.0°C 85% 9.3 mph N15.0 kmh N 12.5 mph20.1 kmh 29.53 in1000.0 mb 0.06 in1.5 mm 0.00 in0.0 mm 0.06 in1.5 mm
01:10 PM 45.3°F7.4°C 41.0°F5.0°C 85% 8.4 mph N13.5 kmh N 12.5 mph20.1 kmh 29.53 in1000.0 mb 0.06 in1.5 mm 0.00 in0.0 mm 0.06 in1.5 mm
01:00 PM 45.1°F7.3°C 41.0°F5.0°C 85% 8.9 mph N14.3 kmh N 11.9 mph19.2 kmh 29.53 in1000.0 mb 0.06 in1.5 mm 0.00 in0.0 mm 0.06 in1.5 mm
12:50 PM 45.0°F7.2°C 41.0°F5.0°C 85% 7.3 mph N11.7 kmh N 11.9 mph19.2 kmh 29.53 in1000.0 mb 0.06 in1.5 mm 0.00 in0.0 mm 0.06 in1.5 mm
12:40 PM 45.0°F7.2°C 41.0°F5.0°C 85% 7.6 mph N12.2 kmh N 10.1 mph16.3 kmh 29.53 in1000.0 mb 0.06 in1.5 mm 0.36 in9.1 mm 0.06 in1.5 mm
12:30 PM 45.0°F7.2°C 41.0°F5.0°C 85% 7.5 mph N12.1 kmh N 10.7 mph17.2 kmh 29.53 in1000.0 mb 0.00 in0.0 mm 0.00 in0.0 mm 0.00 in0.0 mm
12:20 PM 45.0°F7.2°C 41.0°F5.0°C 85% 7.4 mph N11.9 kmh N 12.8 mph20.6 kmh 29.56 in1001.0 mb 0.00 in0.0 mm 0.00 in0.0 mm 0.00 in0.0 mm
12:10 PM 45.0°F7.2°C 41.0°F5.0°C 84% 6.1 mph N9.8 kmh N 8.7 mph14.0 kmh 29.56 in1001.0 mb 0.00 in0.0 mm 0.00 in0.0 mm 0.00 in0.0 mm
12:00 PM 45.1°F7.3°C 41.0°F5.0°C 84% 5.1 mph N8.2 kmh N 8.5 mph13.7 kmh 29.56 in1001.0 mb 0.00 in0.0 mm 0.00 in0.0 mm 0.00 in0.0 mm
11:50 AM 45.3°F7.4°C 41.0°F5.0°C 84% 8.0 mph N12.9 kmh N 10.5 mph16.9 kmh 29.59 in1002.0 mb 0.00 in0.0 mm 0.00 in0.0 mm 0.00 in0.0 mm
11:40 AM 45.5°F7.5°C 41.0°F5.0°C 84% 7.0 mph N11.3 kmh N 11.4 mph18.3 kmh 29.59 in1002.0 mb 0.00 in0.0 mm 0.00 in0.0 mm 0.00 in0.0 mm
11:30 AM 45.5°F7.5°C 41.0°F5.0°C 84% 7.3 mph N11.7 kmh N 10.5 mph16.9 kmh 29.59 in1002.0 mb 0.00 in0.0 mm 0.00 in0.0 mm 0.00 in0.0 mm
11:20 AM 45.7°F7.6°C 41.0°F5.0°C 84% 7.1 mph N11.4 kmh N 14.8 mph23.8 kmh 29.59 in1002.0 mb 0.00 in0.0 mm 0.00 in0.0 mm 0.00 in0.0 mm
11:10 AM 45.7°F7.6°C 41.0°F5.0°C 84% 6.4 mph N10.3 kmh N 10.5 mph16.9 kmh 29.59 in1002.0 mb 0.00 in0.0 mm 0.00 in0.0 mm 0.00 in0.0 mm
11:00 AM 45.7°F7.6°C 41.0°F5.0°C 84% 7.8 mph N12.6 kmh N 12.3 mph19.8 kmh 29.59 in1002.0 mb 0.00 in0.0 mm 0.00 in0.0 mm 0.00 in0.0 mm
10:50 AM 45.5°F7.5°C 41.0°F5.0°C 84% 7.0 mph N11.3 kmh N 11.0 mph17.7 kmh 29.59 in1002.0 mb 0.00 in0.0 mm 0.00 in0.0 mm 0.00 in0.0 mm
10:40 AM 45.7°F7.6°C 41.0°F5.0°C 84% 7.8 mph N12.6 kmh N 16.6 mph26.7 kmh 29.59 in1002.0 mb 0.00 in0.0 mm 0.00 in0.0 mm 0.00 in0.0 mm
10:30 AM 45.5°F7.5°C 42.8°F6.0°C 85% 8.7 mph N14.0 kmh N 14.1 mph22.7 kmh 29.59 in1002.0 mb 0.00 in0.0 mm 0.00 in0.0 mm 0.00 in0.0 mm
10:20 AM 45.0°F7.2°C 41.0°F5.0°C 85% 6.8 mph N10.9 kmh N 10.3 mph16.6 kmh 29.62 in1003.0 mb 0.00 in0.0 mm 0.00 in0.0 mm 0.00 in0.0 mm
10:10 AM 45.1°F7.3°C 41.0°F5.0°C 85% 7.4 mph N11.9 kmh N 12.8 mph20.6 kmh 29.62 in1003.0 mb 0.00 in0.0 mm 0.00 in0.0 mm 0.00 in0.0 mm
10:00 AM 45.0°F7.2°C 41.0°F5.0°C 85% 8.3 mph N13.4 kmh N 12.8 mph20.6 kmh 29.62 in1003.0 mb 0.00 in0.0 mm 0.00 in0.0 mm 0.00 in0.0 mm
09:50 AM 44.6°F7.0°C 41.0°F5.0°C 85% 8.1 mph N13.0 kmh N 13.2 mph21.2 kmh 29.62 in1003.0 mb 0.00 in0.0 mm 0.00 in0.0 mm 0.00 in0.0 mm
09:40 AM 44.6°F7.0°C 41.0°F5.0°C 86% 8.3 mph N13.4 kmh N 13.0 mph20.9 kmh 29.62 in1003.0 mb 0.00 in0.0 mm 0.00 in0.0 mm 0.00 in0.0 mm
09:30 AM 44.2°F6.8°C 41.0°F5.0°C 86% 7.4 mph N11.9 kmh N 13.0 mph20.9 kmh 29.62 in1003.0 mb 0.00 in0.0 mm 0.00 in0.0 mm 0.00 in0.0 mm
09:20 AM 44.1°F6.7°C 41.0°F5.0°C 86% 7.8 mph N12.6 kmh N 11.0 mph17.7 kmh 29.62 in1003.0 mb 0.00 in0.0 mm 0.00 in0.0 mm 0.00 in0.0 mm
09:10 AM 44.1°F6.7°C 41.0°F5.0°C 86% 7.9 mph N12.7 kmh N 11.0 mph17.7 kmh 29.62 in1003.0 mb 0.00 in0.0 mm 0.00 in0.0 mm 0.00 in0.0 mm
09:00 AM 44.1°F6.7°C 41.0°F5.0°C 86% 8.1 mph N13.0 kmh N 12.8 mph20.6 kmh 29.62 in1003.0 mb 0.00 in0.0 mm 0.00 in0.0 mm 0.00 in0.0 mm
08:50 AM 44.1°F6.7°C 41.0°F5.0°C 87% 8.9 mph N14.3 kmh N 10.7 mph17.2 kmh 29.62 in1003.0 mb 0.00 in0.0 mm 0.00 in0.0 mm 0.00 in0.0 mm
08:40 AM 43.9°F6.6°C 41.0°F5.0°C 87% 6.4 mph N10.3 kmh N 8.5 mph13.7 kmh 29.62 in1003.0 mb 0.00 in0.0 mm 0.00 in0.0 mm 0.00 in0.0 mm
08:30 AM 43.9°F6.6°C 41.0°F5.0°C 87% 7.5 mph N12.1 kmh N 10.5 mph16.9 kmh 29.62 in1003.0 mb 0.00 in0.0 mm 0.00 in0.0 mm 0.00 in0.0 mm
08:20 AM 43.9°F6.6°C 41.0°F5.0°C 87% 8.1 mph N13.0 kmh N 10.7 mph17.2 kmh 29.62 in1003.0 mb 0.00 in0.0 mm 0.00 in0.0 mm 0.00 in0.0 mm
08:10 AM 43.7°F6.5°C 41.0°F5.0°C 87% 6.7 mph N10.8 kmh N 8.5 mph13.7 kmh 29.62 in1003.0 mb 0.00 in0.0 mm 0.00 in0.0 mm 0.00 in0.0 mm
08:00 AM 43.7°F6.5°C 41.0°F5.0°C 87% 7.3 mph N11.7 kmh N 10.1 mph16.3 kmh 29.62 in1003.0 mb 0.00 in0.0 mm 0.00 in0.0 mm 0.00 in0.0 mm
07:50 AM 43.7°F6.5°C 41.0°F5.0°C 87% 6.6 mph N10.6 kmh N 8.1 mph13.0 kmh 29.62 in1003.0 mb 0.00 in0.0 mm 0.00 in0.0 mm 0.00 in0.0 mm
07:40 AM 43.5°F6.4°C 41.0°F5.0°C 87% 8.2 mph NNE13.2 kmh NNE 13.2 mph21.2 kmh 29.62 in1003.0 mb 0.00 in0.0 mm 0.00 in0.0 mm 0.00 in0.0 mm
07:30 AM 43.5°F6.4°C 41.0°F5.0°C 87% 8.8 mph N14.2 kmh N 12.8 mph20.6 kmh 29.62 in1003.0 mb 0.00 in0.0 mm 0.00 in0.0 mm 0.00 in0.0 mm
07:20 AM 43.7°F6.5°C 41.0°F5.0°C 87% 8.5 mph N13.7 kmh N 11.9 mph19.2 kmh 29.62 in1003.0 mb 0.00 in0.0 mm 0.00 in0.0 mm 0.00 in0.0 mm
07:10 AM 43.7°F6.5°C 41.0°F5.0°C 87% 9.0 mph N14.5 kmh N 12.5 mph20.1 kmh 29.62 in1003.0 mb 0.00 in0.0 mm 0.00 in0.0 mm 0.00 in0.0 mm
07:00 AM 43.7°F6.5°C 41.0°F5.0°C 87% 7.4 mph N11.9 kmh N 10.7 mph17.2 kmh 29.62 in1003.0 mb 0.00 in0.0 mm 0.00 in0.0 mm 0.00 in0.0 mm
06:50 AM 43.7°F6.5°C 41.0°F5.0°C 87% 6.6 mph N10.6 kmh N 12.3 mph19.8 kmh 29.65 in1004.1 mb 0.00 in0.0 mm 0.00 in0.0 mm 0.00 in0.0 mm
06:40 AM 43.7°F6.5°C 41.0°F5.0°C 87% 7.8 mph N12.6 kmh N 11.0 mph17.7 kmh 29.65 in1004.1 mb 0.00 in0.0 mm 0.00 in0.0 mm 0.00 in0.0 mm
06:30 AM 43.5°F6.4°C 41.0°F5.0°C 87% 8.0 mph N12.9 kmh N 11.0 mph17.7 kmh 29.65 in1004.1 mb 0.00 in0.0 mm 0.00 in0.0 mm 0.00 in0.0 mm
06:20 AM 43.5°F6.4°C 41.0°F5.0°C 87% 7.3 mph N11.7 kmh N 12.3 mph19.8 kmh 29.65 in1004.1 mb 0.00 in0.0 mm 0.00 in0.0 mm 0.00 in0.0 mm
06:10 AM 43.5°F6.4°C 41.0°F5.0°C 87% 7.3 mph N11.7 kmh N 10.5 mph16.9 kmh 29.65 in1004.1 mb 0.00 in0.0 mm 0.00 in0.0 mm 0.00 in0.0 mm
06:00 AM 43.5°F6.4°C 41.0°F5.0°C 87% 6.9 mph N11.1 kmh N 13.2 mph21.2 kmh 29.65 in1004.1 mb 0.00 in0.0 mm 0.00 in0.0 mm 0.00 in0.0 mm
05:50 AM 43.3°F6.3°C 41.0°F5.0°C 87% 7.3 mph N11.7 kmh N 9.8 mph15.8 kmh 29.65 in1004.1 mb 0.00 in0.0 mm 0.00 in0.0 mm 0.00 in0.0 mm
05:40 AM 43.3°F6.3°C 41.0°F5.0°C 87% 8.0 mph N12.9 kmh N 11.0 mph17.7 kmh 29.65 in1004.1 mb 0.00 in0.0 mm 0.00 in0.0 mm 0.00 in0.0 mm
05:30 AM 43.3°F6.3°C 41.0°F5.0°C 87% 7.4 mph N11.9 kmh N 10.3 mph16.6 kmh 29.65 in1004.1 mb 0.00 in0.0 mm 0.00 in0.0 mm 0.00 in0.0 mm
05:20 AM 43.3°F6.3°C 41.0°F5.0°C 87% 7.2 mph N11.6 kmh N 10.1 mph16.3 kmh 29.68 in1005.1 mb 0.00 in0.0 mm 0.00 in0.0 mm 0.00 in0.0 mm
05:10 AM 43.3°F6.3°C 41.0°F5.0°C 87% 5.9 mph N9.5 kmh N 10.5 mph16.9 kmh 29.68 in1005.1 mb 0.00 in0.0 mm 0.00 in0.0 mm 0.00 in0.0 mm
05:00 AM 43.3°F6.3°C 41.0°F5.0°C 87% 6.5 mph N10.5 kmh N 8.1 mph13.0 kmh 29.68 in1005.1 mb 0.00 in0.0 mm 0.00 in0.0 mm 0.00 in0.0 mm
04:50 AM 43.2°F6.2°C 41.0°F5.0°C 87% 8.5 mph N13.7 kmh N 14.8 mph23.8 kmh 29.68 in1005.1 mb 0.00 in0.0 mm 0.00 in0.0 mm 0.00 in0.0 mm
04:40 AM 43.2°F6.2°C 41.0°F5.0°C 87% 8.0 mph N12.9 kmh N 13.2 mph21.2 kmh 29.68 in1005.1 mb 0.00 in0.0 mm 0.00 in0.0 mm 0.00 in0.0 mm
04:30 AM 43.2°F6.2°C 41.0°F5.0°C 87% 7.2 mph N11.6 kmh N 12.5 mph20.1 kmh 29.68 in1005.1 mb 0.00 in0.0 mm 0.00 in0.0 mm 0.00 in0.0 mm
04:20 AM 43.2°F6.2°C 41.0°F5.0°C 87% 7.9 mph N12.7 kmh N 12.8 mph20.6 kmh 29.68 in1005.1 mb 0.00 in0.0 mm 0.00 in0.0 mm 0.00 in0.0 mm
04:10 AM 43.0°F6.1°C 39.2°F4.0°C 87% 9.1 mph N14.6 kmh N 14.3 mph23.0 kmh 29.68 in1005.1 mb 0.00 in0.0 mm 0.00 in0.0 mm 0.00 in0.0 mm
04:00 AM 43.0°F6.1°C 39.2°F4.0°C 87% 6.7 mph N10.8 kmh N 10.7 mph17.2 kmh 29.68 in1005.1 mb 0.00 in0.0 mm 0.00 in0.0 mm 0.00 in0.0 mm
03:50 AM 43.0°F6.1°C 39.2°F4.0°C 87% 8.1 mph N13.0 kmh N 10.3 mph16.6 kmh 29.71 in1006.1 mb 0.00 in0.0 mm 0.00 in0.0 mm 0.00 in0.0 mm
03:40 AM 43.0°F6.1°C 39.2°F4.0°C 87% 7.6 mph N12.2 kmh N 8.5 mph13.7 kmh 29.71 in1006.1 mb 0.00 in0.0 mm 0.00 in0.0 mm 0.00 in0.0 mm
03:30 AM 43.0°F6.1°C 39.2°F4.0°C 87% 8.9 mph N14.3 kmh N 12.5 mph20.1 kmh 29.71 in1006.1 mb 0.00 in0.0 mm 0.00 in0.0 mm 0.00 in0.0 mm
03:20 AM 42.8°F6.0°C 39.2°F4.0°C 87% 6.8 mph N10.9 kmh N 11.4 mph18.3 kmh 29.71 in1006.1 mb 0.00 in0.0 mm 0.00 in0.0 mm 0.00 in0.0 mm
03:10 AM 42.8°F6.0°C 39.2°F4.0°C 87% 6.4 mph N10.3 kmh N 8.5 mph13.7 kmh 29.71 in1006.1 mb 0.00 in0.0 mm 0.00 in0.0 mm 0.00 in0.0 mm
03:00 AM 42.8°F6.0°C 39.2°F4.0°C 87% 8.5 mph N13.7 kmh N 12.8 mph20.6 kmh 29.71 in1006.1 mb 0.00 in0.0 mm 0.00 in0.0 mm 0.00 in0.0 mm
02:50 AM 42.6°F5.9°C 39.2°F4.0°C 87% 8.0 mph N12.9 kmh N 13.2 mph21.2 kmh 29.71 in1006.1 mb 0.00 in0.0 mm 0.00 in0.0 mm 0.00 in0.0 mm
02:40 AM 42.6°F5.9°C 39.2°F4.0°C 87% 7.7 mph N12.4 kmh N 12.5 mph20.1 kmh 29.71 in1006.1 mb 0.00 in0.0 mm 0.00 in0.0 mm 0.00 in0.0 mm
02:30 AM 42.6°F5.9°C 39.2°F4.0°C 86% 7.6 mph N12.2 kmh N 14.8 mph23.8 kmh 29.71 in1006.1 mb 0.00 in0.0 mm 0.00 in0.0 mm 0.00 in0.0 mm
02:20 AM 42.6°F5.9°C 39.2°F4.0°C 86% 10.2 mph N16.4 kmh N 12.1 mph19.5 kmh 29.74 in1007.1 mb 0.00 in0.0 mm 0.00 in0.0 mm 0.00 in0.0 mm
02:10 AM 42.6°F5.9°C 39.2°F4.0°C 86% 7.5 mph N12.1 kmh N 10.7 mph17.2 kmh 29.74 in1007.1 mb 0.00 in0.0 mm 0.00 in0.0 mm 0.00 in0.0 mm
02:00 AM 42.6°F5.9°C 39.2°F4.0°C 86% 7.4 mph N11.9 kmh N 13.0 mph20.9 kmh 29.74 in1007.1 mb 0.00 in0.0 mm 0.00 in0.0 mm 0.00 in0.0 mm
01:50 AM 42.6°F5.9°C 39.2°F4.0°C 86% 9.6 mph N15.4 kmh N 13.0 mph20.9 kmh 29.74 in1007.1 mb 0.00 in0.0 mm 0.00 in0.0 mm 0.00 in0.0 mm
01:40 AM 42.6°F5.9°C 39.2°F4.0°C 86% 9.0 mph N14.5 kmh N 15.4 mph24.8 kmh 29.74 in1007.1 mb 0.00 in0.0 mm 0.00 in0.0 mm 0.00 in0.0 mm
01:30 AM 42.6°F5.9°C 39.2°F4.0°C 85% 7.2 mph N11.6 kmh N 10.5 mph16.9 kmh 29.74 in1007.1 mb 0.00 in0.0 mm 0.00 in0.0 mm 0.00 in0.0 mm
01:20 AM 42.6°F5.9°C 39.2°F4.0°C 85% 6.1 mph N9.8 kmh N 11.0 mph17.7 kmh 29.74 in1007.1 mb 0.00 in0.0 mm 0.00 in0.0 mm 0.00 in0.0 mm
01:10 AM 42.4°F5.8°C 39.2°F4.0°C 85% 7.0 mph N11.3 kmh N 11.9 mph19.2 kmh 29.74 in1007.1 mb 0.00 in0.0 mm 0.00 in0.0 mm 0.00 in0.0 mm
01:00 AM 42.4°F5.8°C 39.2°F4.0°C 85% 7.0 mph N11.3 kmh N 11.9 mph19.2 kmh 29.77 in1008.1 mb 0.00 in0.0 mm 0.00 in0.0 mm 0.00 in0.0 mm
12:50 AM 42.4°F5.8°C 39.2°F4.0°C 85% 7.4 mph N11.9 kmh N 10.5 mph16.9 kmh 29.77 in1008.1 mb 0.00 in0.0 mm 0.00 in0.0 mm 0.00 in0.0 mm
12:40 AM 42.4°F5.8°C 39.2°F4.0°C 85% 6.1 mph N9.8 kmh N 7.8 mph12.6 kmh 29.77 in1008.1 mb 0.00 in0.0 mm 0.00 in0.0 mm 0.00 in0.0 mm
12:30 AM 42.4°F5.8°C 39.2°F4.0°C 85% 5.7 mph N9.2 kmh N 10.5 mph16.9 kmh 29.77 in1008.1 mb 0.00 in0.0 mm 0.00 in0.0 mm 0.00 in0.0 mm
12:20 AM 42.3°F5.7°C 39.2°F4.0°C 85% 6.6 mph N10.6 kmh N 11.0 mph17.7 kmh 29.80 in1009.1 mb 0.00 in0.0 mm 0.00 in0.0 mm 0.00 in0.0 mm
12:10 AM 42.3°F5.7°C 39.2°F4.0°C 85% 8.1 mph N13.0 kmh N 15.2 mph24.5 kmh 29.80 in1009.1 mb 0.00 in0.0 mm 0.00 in0.0 mm 0.00 in0.0 mm
12:00 AM 42.3°F5.7°C 39.2°F4.0°C 85% 7.1 mph N11.4 kmh N 9.6 mph15.4 kmh 29.80 in1009.1 mb 0.00 in0.0 mm 0.00 in0.0 mm 0.00 in0.0 mm